createdAt,value
2023-03-28T00:01:15.648Z,12.34
2023-03-28T00:03:46.227Z,12.31
2023-03-28T00:06:18.724Z,12.28
2023-03-28T00:08:48.126Z,12.27
2023-03-28T00:11:20.987Z,12.25
2023-03-28T00:13:53.763Z,12.24
2023-03-28T00:16:26.222Z,12.24
2023-03-28T00:18:55.431Z,12.25
2023-03-28T00:21:25.123Z,12.25
2023-03-28T00:23:54.357Z,12.24
2023-03-28T00:26:24.928Z,12.24
2023-03-28T00:28:53.545Z,12.27
2023-03-28T00:31:24.837Z,12.29
2023-03-28T00:33:53.305Z,12.29
2023-03-28T00:36:26.853Z,12.35
2023-03-28T00:39:01.731Z,12.39
2023-03-28T00:41:33.387Z,12.41
2023-03-28T00:44:01.733Z,12.40
2023-03-28T00:46:39.154Z,12.38
2023-03-28T00:49:21.399Z,12.36
2023-03-28T00:51:57.026Z,12.35
2023-03-28T00:54:28.128Z,12.33
2023-03-28T00:56:58.529Z,12.32
2023-03-28T00:59:27.501Z,12.29
2023-03-28T01:01:56.531Z,12.30
2023-03-28T01:04:26.036Z,12.31
2023-03-28T01:06:59.672Z,12.32
2023-03-28T01:09:28.506Z,12.33
2023-03-28T01:11:57.032Z,12.36
2023-03-28T01:14:27.420Z,12.42
2023-03-28T01:17:02.515Z,12.47
2023-03-28T01:19:43.405Z,12.49
2023-03-28T01:22:36.719Z,12.53
2023-03-28T01:25:24.474Z,12.57
2023-03-28T01:28:02.407Z,12.55
2023-03-28T01:31:02.018Z,12.46
2023-03-28T01:34:01.696Z,12.39
2023-03-28T01:36:45.833Z,12.35
2023-03-28T01:39:30.175Z,12.35
2023-03-28T01:42:04.516Z,12.34
2023-03-28T01:44:33.023Z,12.30
2023-03-28T01:47:45.727Z,12.27
2023-03-28T01:51:02.941Z,12.27
2023-03-28T01:53:51.405Z,12.24
2023-03-28T01:56:44.323Z,12.15
2023-03-28T01:59:26.470Z,12.06
2023-03-28T02:02:33.194Z,12.02
2023-03-28T02:05:09.861Z,12.07
2023-03-28T02:07:44.113Z,12.18
2023-03-28T02:10:15.835Z,12.24
2023-03-28T02:12:59.454Z,12.22
2023-03-28T02:16:07.926Z,12.27
2023-03-28T02:18:56.366Z,12.26
2023-03-28T02:21:34.939Z,12.27
2023-03-28T02:24:14.479Z,12.23
2023-03-28T02:27:09.054Z,12.12
2023-03-28T02:29:44.775Z,12.09
2023-03-28T02:32:22.065Z,12.16
2023-03-28T02:34:51.617Z,12.21
2023-03-28T02:37:41.304Z,12.22
2023-03-28T02:40:33.238Z,12.20
2023-03-28T02:43:11.001Z,12.15
2023-03-28T02:45:55.573Z,12.08
2023-03-28T02:49:02.205Z,12.05
2023-03-28T02:51:59.973Z,12.08
2023-03-28T02:54:36.294Z,12.05
2023-03-28T02:57:45.910Z,12.08
2023-03-28T03:00:18.737Z,12.13
2023-03-28T03:02:51.623Z,12.14
2023-03-28T03:05:21.070Z,12.14
2023-03-28T03:07:49.982Z,12.14
2023-03-28T03:10:22.092Z,12.08
2023-03-28T03:12:50.666Z,11.96
2023-03-28T03:15:21.530Z,11.83
2023-03-28T03:17:59.554Z,11.69
2023-03-28T03:20:35.561Z,11.62
2023-03-28T03:23:06.510Z,11.65
2023-03-28T03:25:35.609Z,11.74
2023-03-28T03:28:25.556Z,11.84
2023-03-28T03:30:54.353Z,11.87
2023-03-28T03:33:25.160Z,11.87
2023-03-28T03:36:10.104Z,11.87
2023-03-28T03:38:40.412Z,11.87
2023-03-28T03:41:09.795Z,11.89
2023-03-28T03:43:42.030Z,11.88
2023-03-28T03:46:10.204Z,11.85
2023-03-28T03:48:38.773Z,11.81
2023-03-28T03:51:18.300Z,11.85
2023-03-28T03:53:46.881Z,11.91
2023-03-28T03:56:17.989Z,11.96
2023-03-28T03:58:59.653Z,11.98
2023-03-28T04:01:35.008Z,12.01
2023-03-28T04:04:23.664Z,12.02
2023-03-28T04:07:14.938Z,11.98
2023-03-28T04:09:43.351Z,11.95
2023-03-28T04:12:11.755Z,11.94
2023-03-28T04:14:47.538Z,11.92
2023-03-28T04:17:46.168Z,11.86
2023-03-28T04:20:20.646Z,11.87
2023-03-28T04:23:08.588Z,11.87
2023-03-28T04:25:41.791Z,11.82
2023-03-28T04:28:25.759Z,11.78
2023-03-28T04:31:00.346Z,11.76
2023-03-28T04:33:40.932Z,11.76
2023-03-28T04:36:10.832Z,11.74
2023-03-28T04:38:41.746Z,11.73
2023-03-28T04:41:25.825Z,11.71
2023-03-28T04:44:13.380Z,11.76
2023-03-28T04:46:46.681Z,11.79
2023-03-28T04:49:16.499Z,11.81
2023-03-28T04:51:46.396Z,11.82
2023-03-28T04:54:18.233Z,11.82
2023-03-28T04:56:50.378Z,11.82
2023-03-28T04:59:24.966Z,11.82
2023-03-28T05:01:53.388Z,11.78
2023-03-28T05:04:34.046Z,11.75
2023-03-28T05:07:06.412Z,11.70
2023-03-28T05:09:34.998Z,11.71
2023-03-28T05:12:03.476Z,11.72
2023-03-28T05:14:34.479Z,11.70
2023-03-28T05:17:13.426Z,11.62
2023-03-28T05:19:47.762Z,11.51
2023-03-28T05:22:19.227Z,11.40
2023-03-28T05:24:48.828Z,11.33
2023-03-28T05:27:18.887Z,11.32
2023-03-28T05:29:48.240Z,11.33
2023-03-28T05:32:18.860Z,11.33
2023-03-28T05:34:47.475Z,11.29
2023-03-28T05:37:16.245Z,11.28
2023-03-28T05:39:53.303Z,11.22
2023-03-28T05:42:22.227Z,11.15
2023-03-28T05:44:51.819Z,11.15
2023-03-28T05:47:24.020Z,11.16
2023-03-28T05:49:54.348Z,11.11
2023-03-28T05:52:23.849Z,11.06
2023-03-28T05:54:52.826Z,11.02
2023-03-28T05:57:25.315Z,10.95
2023-03-28T05:59:54.912Z,10.88
2023-03-28T06:02:25.366Z,10.88
2023-03-28T06:04:58.878Z,10.92
2023-03-28T06:07:41.509Z,10.99
2023-03-28T06:10:13.329Z,11.05
2023-03-28T06:12:45.997Z,11.10
2023-03-28T06:15:14.075Z,11.12
2023-03-28T06:17:49.762Z,11.15
2023-03-28T06:20:18.603Z,11.17
2023-03-28T06:22:46.876Z,11.17
2023-03-28T06:25:15.342Z,11.18
2023-03-28T06:27:44.383Z,11.24
2023-03-28T06:30:14.390Z,11.35
2023-03-28T06:32:47.789Z,11.47
2023-03-28T06:35:16.314Z,11.57
2023-03-28T06:37:44.936Z,11.66
2023-03-28T06:40:17.064Z,11.72
2023-03-28T06:42:46.499Z,11.78
2023-03-28T06:45:17.786Z,11.84
2023-03-28T06:47:51.859Z,11.85
2023-03-28T06:50:26.624Z,11.91
2023-03-28T06:52:59.582Z,12.01
2023-03-28T06:55:29.467Z,12.07
2023-03-28T06:58:01.885Z,12.14
2023-03-28T07:00:42.740Z,12.18
2023-03-28T07:03:31.917Z,12.22
2023-03-28T07:06:04.770Z,12.25
2023-03-28T07:08:33.365Z,12.24
2023-03-28T07:11:02.710Z,12.24
2023-03-28T07:13:34.133Z,12.24
2023-03-28T07:16:08.295Z,12.25
2023-03-28T07:18:36.627Z,12.30
2023-03-28T07:24:18.174Z,12.21
2023-03-28T07:27:18.332Z,12.43
2023-03-28T07:29:47.920Z,12.50
2023-03-28T07:32:16.896Z,12.50
2023-03-28T07:34:46.715Z,12.45
2023-03-28T07:37:20.209Z,12.41
2023-03-28T07:40:10.981Z,12.38
2023-03-28T07:42:40.180Z,12.36
2023-03-28T07:45:11.755Z,12.35
2023-03-28T07:47:41.806Z,12.36
2023-03-28T07:50:10.433Z,12.37
2023-03-28T07:52:45.724Z,12.36
2023-03-28T07:55:15.296Z,12.33
2023-03-28T07:57:52.918Z,12.31
2023-03-28T08:00:33.616Z,12.29
2023-03-28T08:03:23.374Z,12.26
2023-03-28T08:05:54.948Z,12.23
2023-03-28T08:08:25.267Z,12.20
2023-03-28T08:11:11.757Z,12.23
2023-03-28T08:13:40.034Z,12.27
2023-03-28T08:16:20.418Z,12.27
2023-03-28T08:18:57.054Z,12.26
2023-03-28T08:21:31.283Z,12.22
2023-03-28T08:23:59.660Z,12.18
2023-03-28T08:26:36.882Z,12.16
2023-03-28T08:29:07.328Z,12.11
2023-03-28T08:31:36.021Z,12.03
2023-03-28T08:34:08.528Z,12.00
2023-03-28T08:36:42.504Z,11.98
2023-03-28T08:39:21.595Z,11.97
2023-03-28T08:42:28.655Z,11.97
2023-03-28T08:45:03.531Z,11.94
2023-03-28T08:47:33.086Z,11.89
2023-03-28T08:50:47.921Z,11.80
2023-03-28T08:53:24.711Z,11.71
2023-03-28T08:55:53.846Z,11.67
2023-03-28T08:58:25.268Z,11.70
2023-03-28T09:00:53.942Z,11.77
2023-03-28T09:03:23.770Z,11.83
2023-03-28T09:06:00.981Z,11.86
2023-03-28T09:08:36.745Z,11.89
2023-03-28T09:11:21.964Z,11.90
2023-03-28T09:14:30.106Z,11.92
2023-03-28T09:17:15.032Z,11.93
2023-03-28T09:19:53.693Z,11.95
2023-03-28T09:23:10.634Z,12.03
2023-03-28T09:26:17.555Z,12.13
2023-03-28T09:29:02.143Z,12.14
2023-03-28T09:31:38.115Z,12.13
2023-03-28T09:34:07.524Z,12.09
2023-03-28T09:36:48.980Z,12.06
2023-03-28T09:39:30.572Z,12.02
2023-03-28T09:42:14.552Z,12.06
2023-03-28T09:44:56.205Z,12.13
2023-03-28T09:47:46.815Z,12.17
2023-03-28T09:50:18.447Z,12.15
2023-03-28T09:52:53.024Z,12.14
2023-03-28T09:55:23.810Z,12.13
2023-03-28T09:58:09.904Z,12.11
2023-03-28T10:00:57.277Z,12.14
2023-03-28T10:03:54.361Z,12.20
2023-03-28T10:06:30.172Z,12.25
2023-03-28T10:09:28.349Z,12.25
2023-03-28T10:12:10.102Z,12.21
2023-03-28T10:14:42.138Z,12.16
2023-03-28T10:17:30.022Z,12.11
2023-03-28T10:20:08.215Z,12.06
2023-03-28T10:22:39.369Z,12.02
2023-03-28T10:25:08.876Z,11.99
2023-03-28T10:27:38.303Z,11.98
2023-03-28T10:30:29.601Z,11.99
2023-03-28T10:33:21.369Z,12.04
2023-03-28T10:36:12.893Z,12.08
2023-03-28T10:38:43.634Z,12.08
2023-03-28T10:41:31.305Z,12.04
2023-03-28T10:44:19.604Z,11.98
2023-03-28T10:47:18.444Z,11.95
2023-03-28T10:49:55.345Z,11.97
2023-03-28T10:52:44.694Z,12.01
2023-03-28T10:55:23.388Z,12.06
2023-03-28T10:58:31.427Z,12.11
2023-03-28T11:01:09.234Z,12.13
2023-03-28T11:03:53.355Z,12.09
2023-03-28T11:06:32.409Z,12.03
2023-03-28T11:09:23.262Z,11.97
2023-03-28T11:12:54.425Z,12.02
2023-03-28T11:15:44.068Z,12.10
2023-03-28T11:18:20.872Z,12.15
2023-03-28T11:20:58.476Z,12.17
2023-03-28T11:23:38.139Z,12.16
2023-03-28T11:26:48.932Z,12.13
2023-03-28T11:30:17.814Z,12.07
2023-03-28T11:33:55.957Z,12.05
2023-03-28T11:36:36.565Z,12.12
2023-03-28T11:39:35.197Z,12.20
2023-03-28T11:42:07.987Z,12.26
2023-03-28T11:44:45.553Z,12.30
2023-03-28T11:47:18.712Z,12.36
2023-03-28T11:49:54.024Z,12.40
2023-03-28T11:53:04.252Z,12.39
2023-03-28T11:55:44.735Z,12.40
2023-03-28T11:58:24.897Z,12.48
2023-03-28T12:01:02.891Z,12.55
2023-03-28T12:03:37.423Z,12.61
2023-03-28T12:06:22.587Z,12.63
2023-03-28T12:08:57.393Z,12.61
2023-03-28T12:11:40.133Z,12.55
2023-03-28T12:14:12.795Z,12.50
2023-03-28T12:16:47.872Z,12.48
2023-03-28T12:19:34.480Z,12.53
2023-03-28T12:22:19.489Z,12.59
2023-03-28T12:24:52.766Z,12.63
2023-03-28T12:27:43.104Z,12.65
2023-03-28T12:30:32.526Z,12.67
2023-03-28T12:33:04.377Z,12.63
2023-03-28T12:35:49.678Z,12.53
2023-03-28T12:38:37.454Z,12.42
2023-03-28T12:41:36.554Z,12.35
2023-03-28T12:44:07.800Z,12.31
2023-03-28T12:47:34.693Z,12.28
2023-03-28T12:50:14.906Z,12.22
2023-03-28T12:52:44.129Z,12.16
2023-03-28T12:55:25.390Z,12.11
2023-03-28T12:58:11.335Z,12.05
2023-03-28T13:01:27.773Z,11.97
2023-03-28T13:04:22.145Z,11.89
2023-03-28T13:07:01.470Z,11.88
2023-03-28T13:09:50.680Z,11.92
2023-03-28T13:12:44.922Z,11.99
2023-03-28T13:15:13.356Z,12.03
2023-03-28T13:17:49.597Z,12.03
2023-03-28T13:20:18.198Z,11.99
2023-03-28T13:22:58.597Z,11.91
2023-03-28T13:25:27.452Z,11.69
2023-03-28T13:28:19.179Z,11.52
2023-03-28T13:30:47.548Z,11.46
2023-03-28T13:33:26.402Z,11.44
2023-03-28T13:35:57.715Z,11.31
2023-03-28T13:38:29.527Z,10.85
2023-03-28T13:41:07.551Z,10.21
2023-03-28T13:43:44.865Z,9.59
2023-03-28T13:46:20.042Z,9.09
2023-03-28T13:48:54.346Z,8.67
2023-03-28T13:51:24.716Z,8.20
2023-03-28T13:53:53.248Z,7.85
2023-03-28T13:56:26.869Z,7.67
2023-03-28T13:58:56.918Z,7.55
2023-03-28T14:01:27.543Z,7.34
2023-03-28T14:03:56.558Z,7.16
2023-03-28T14:06:27.633Z,7.04
2023-03-28T14:09:02.640Z,6.90
2023-03-28T14:11:34.837Z,6.82
2023-03-28T14:14:22.814Z,6.76
2023-03-28T14:16:51.823Z,6.60
2023-03-28T14:19:33.189Z,6.37
2023-03-28T14:22:22.220Z,6.14
2023-03-28T14:24:52.448Z,6.01
2023-03-28T14:27:36.011Z,5.91
2023-03-28T14:30:28.931Z,5.93
2023-03-28T14:33:14.908Z,5.90
2023-03-28T14:35:45.738Z,5.82
2023-03-28T14:38:17.007Z,5.76
2023-03-28T14:40:46.348Z,5.66
2023-03-28T14:43:17.094Z,5.57
2023-03-28T14:45:48.100Z,5.46
2023-03-28T14:48:20.601Z,5.44
2023-03-28T14:50:51.426Z,5.45
2023-03-28T14:53:26.040Z,5.40
2023-03-28T14:55:58.724Z,5.34
2023-03-28T14:58:28.521Z,5.22
2023-03-28T15:01:01.205Z,5.15
2023-03-28T15:03:35.284Z,5.16
2023-03-28T15:06:07.292Z,5.11
2023-03-28T15:08:38.108Z,5.02
2023-03-28T15:11:33.955Z,4.95
2023-03-28T15:14:04.146Z,4.86
2023-03-28T15:16:32.875Z,4.83
2023-03-28T15:19:09.444Z,4.84
2023-03-28T15:21:39.541Z,4.76
2023-03-28T15:24:11.026Z,4.66
2023-03-28T15:26:45.005Z,4.51
2023-03-28T15:29:16.646Z,4.44
2023-03-28T15:31:45.411Z,4.39
2023-03-28T15:34:22.126Z,4.40
2023-03-28T15:37:02.772Z,4.31
2023-03-28T15:39:37.984Z,4.21
2023-03-28T15:42:19.202Z,4.12
2023-03-28T15:44:59.770Z,4.10
2023-03-28T15:47:30.624Z,4.08
2023-03-28T15:50:03.511Z,4.00
2023-03-28T15:52:34.389Z,3.89
2023-03-28T15:55:03.110Z,3.80
2023-03-28T15:57:32.482Z,3.71
2023-03-28T16:00:01.303Z,3.70
2023-03-28T16:02:32.942Z,3.68
2023-03-28T16:05:32.169Z,3.63
2023-03-28T16:08:00.652Z,3.53
2023-03-28T16:10:34.230Z,3.42
2023-03-28T16:13:30.888Z,3.39
2023-03-28T16:16:28.836Z,3.35
2023-03-28T16:19:27.448Z,3.29
2023-03-28T16:21:59.071Z,3.19
2023-03-28T16:24:29.128Z,3.13
2023-03-28T16:26:57.712Z,3.07
2023-03-28T16:29:30.087Z,3.00
2023-03-28T16:31:58.913Z,2.94
2023-03-28T16:34:27.628Z,2.92
2023-03-28T16:36:57.901Z,2.88
2023-03-28T16:39:26.863Z,2.85
2023-03-28T16:41:55.146Z,2.81
2023-03-28T16:44:23.871Z,2.78
2023-03-28T16:46:53.139Z,2.84
2023-03-28T16:49:24.175Z,2.87
2023-03-28T16:51:53.725Z,2.84
2023-03-28T16:54:23.291Z,2.79
2023-03-28T16:56:52.271Z,2.69
2023-03-28T16:59:20.820Z,2.69
2023-03-28T17:01:50.224Z,2.69
2023-03-28T17:04:18.918Z,2.64
2023-03-28T17:06:47.279Z,2.60
2023-03-28T17:09:15.652Z,2.58
2023-03-28T17:11:43.989Z,2.59
2023-03-28T17:14:19.753Z,2.61
2023-03-28T17:16:48.665Z,2.63
2023-03-28T17:19:19.463Z,2.60
2023-03-28T17:21:49.424Z,2.53
2023-03-28T17:24:18.784Z,2.54
2023-03-28T17:26:47.445Z,2.55
2023-03-28T17:29:16.668Z,2.50
2023-03-28T17:31:44.946Z,2.41
2023-03-28T17:34:14.764Z,2.36
2023-03-28T17:36:44.671Z,2.37
2023-03-28T17:39:13.543Z,2.33
2023-03-28T17:41:41.810Z,2.30
2023-03-28T17:44:15.698Z,2.29
2023-03-28T17:46:44.601Z,2.29
2023-03-28T17:49:12.849Z,2.29
2023-03-28T17:51:42.686Z,2.26
2023-03-28T17:54:12.194Z,2.28
2023-03-28T17:56:43.360Z,2.27
2023-03-28T17:59:12.711Z,2.23
2023-03-28T18:01:41.132Z,2.10
2023-03-28T18:04:09.342Z,2.03
2023-03-28T18:06:59.947Z,2.03
2023-03-28T18:09:28.733Z,1.99
2023-03-28T18:11:58.465Z,1.92
2023-03-28T18:14:27.350Z,1.91
2023-03-28T18:16:58.674Z,1.89
2023-03-28T18:19:27.358Z,1.78
2023-03-28T18:21:56.340Z,1.80
2023-03-28T18:24:24.626Z,1.73
2023-03-28T18:26:53.522Z,1.77
2023-03-28T18:29:22.515Z,1.75
2023-03-28T18:31:50.611Z,1.67
2023-03-28T18:34:19.686Z,1.73
2023-03-28T18:36:48.346Z,1.76
2023-03-28T18:39:16.752Z,1.72
2023-03-28T18:41:45.152Z,1.63
2023-03-28T18:44:13.826Z,1.62
2023-03-28T18:46:42.085Z,1.66
2023-03-28T18:49:11.100Z,1.59
2023-03-28T18:51:39.843Z,1.49
2023-03-28T18:54:09.388Z,1.55
2023-03-28T18:56:38.108Z,1.55
2023-03-28T18:59:08.807Z,1.50
2023-03-28T19:01:42.323Z,1.46
2023-03-28T19:04:12.296Z,1.44
2023-03-28T19:06:41.220Z,1.43
2023-03-28T19:09:09.497Z,1.40
2023-03-28T19:11:37.902Z,1.32
2023-03-28T19:14:08.207Z,1.30
2023-03-28T19:19:37.631Z,1.24
2023-03-28T19:35:29.724Z,1.50
2023-03-28T19:37:58.561Z,1.83
2023-03-28T19:40:27.084Z,1.77
2023-03-28T19:42:58.617Z,1.69
2023-03-28T19:45:28.518Z,1.55
2023-03-28T19:47:57.042Z,1.50
2023-03-28T19:50:27.034Z,1.50
2023-03-28T19:52:55.394Z,1.46
2023-03-28T19:55:24.704Z,1.35
2023-03-28T19:57:54.569Z,1.33
2023-03-28T20:00:22.846Z,1.37
2023-03-28T20:02:51.233Z,1.26
2023-03-28T20:05:19.742Z,1.25
2023-03-28T20:07:47.817Z,1.24
2023-03-28T20:10:16.916Z,1.28
2023-03-28T20:12:45.907Z,1.28
2023-03-28T20:15:14.082Z,1.29
2023-03-28T20:17:42.823Z,1.26
2023-03-28T20:20:13.034Z,1.22
2023-03-28T20:22:42.808Z,1.21
2023-03-28T20:25:11.170Z,1.24
2023-03-28T20:27:39.872Z,1.23
2023-03-28T20:30:09.646Z,1.19
2023-03-28T20:32:43.746Z,1.26
2023-03-28T20:35:12.171Z,1.33
2023-03-28T20:37:43.730Z,1.33
2023-03-28T20:40:12.927Z,1.34
2023-03-28T20:42:42.123Z,1.32
2023-03-28T20:45:14.233Z,1.37
2023-03-28T20:47:43.158Z,1.44
2023-03-28T20:50:11.664Z,1.45
2023-03-28T20:52:40.796Z,1.45
2023-03-28T20:55:15.239Z,1.43
2023-03-28T20:57:49.177Z,1.39
2023-03-28T21:00:20.437Z,1.47
2023-03-28T21:02:53.874Z,1.47
2023-03-28T21:05:23.036Z,1.49
2023-03-28T21:07:53.048Z,1.46
2023-03-28T21:10:21.439Z,1.43
2023-03-28T21:12:51.048Z,1.51
2023-03-28T21:15:20.006Z,1.51
2023-03-28T21:17:53.752Z,1.53
2023-03-28T21:20:22.013Z,1.54
2023-03-28T21:22:51.415Z,1.60
2023-03-28T21:25:21.085Z,1.66
2023-03-28T21:27:49.766Z,1.67
2023-03-28T21:30:19.625Z,1.60
2023-03-28T21:33:02.199Z,1.59
2023-03-28T21:35:31.958Z,1.64
2023-03-28T21:38:00.648Z,1.75
2023-03-28T21:40:28.908Z,1.75
2023-03-28T21:42:57.302Z,1.74
2023-03-28T21:45:25.470Z,1.67
2023-03-28T21:47:59.100Z,1.73
2023-03-28T21:50:31.763Z,1.78
2023-03-28T21:53:00.483Z,1.77
2023-03-28T21:55:29.327Z,1.73
2023-03-28T21:57:58.216Z,1.76
2023-03-28T22:00:26.391Z,1.75
2023-03-28T22:02:55.807Z,1.74
2023-03-28T22:05:29.586Z,1.79
2023-03-28T22:07:58.876Z,1.80
2023-03-28T22:10:29.478Z,1.81
2023-03-28T22:13:01.194Z,1.80
2023-03-28T22:15:30.841Z,1.76
2023-03-28T22:18:00.047Z,1.77
2023-03-28T22:20:35.752Z,1.86
2023-03-28T22:23:04.613Z,1.87
2023-03-28T22:25:34.904Z,1.84
2023-03-28T22:28:12.774Z,1.85
2023-03-28T22:30:41.472Z,1.82
2023-03-28T22:33:13.629Z,1.90
2023-03-28T22:35:42.239Z,1.88
2023-03-28T22:38:11.132Z,1.82
2023-03-28T22:40:40.816Z,1.80
2023-03-28T22:43:09.293Z,1.84
2023-03-28T22:45:43.198Z,1.89
2023-03-28T22:48:14.883Z,1.92
2023-03-28T22:50:47.320Z,1.88
2023-03-28T22:53:16.341Z,1.88
2023-03-28T22:55:44.820Z,1.88
2023-03-28T22:58:13.808Z,1.92
2023-03-28T23:00:43.940Z,2.01
2023-03-28T23:03:12.397Z,2.03
2023-03-28T23:05:41.195Z,2.03
2023-03-28T23:08:10.544Z,2.02
2023-03-28T23:10:38.772Z,1.92
2023-03-28T23:13:10.528Z,1.96
2023-03-28T23:15:40.336Z,2.01
2023-03-28T23:18:14.908Z,2.01
2023-03-28T23:20:49.746Z,2.02
2023-03-28T23:23:18.936Z,2.03
2023-03-28T23:25:52.408Z,1.97
2023-03-28T23:28:20.840Z,1.96
2023-03-28T23:30:54.370Z,1.95
2023-03-28T23:33:22.849Z,2.05
2023-03-28T23:35:51.046Z,2.03
2023-03-28T23:38:19.709Z,2.02
2023-03-28T23:40:48.084Z,2.02
2023-03-28T23:43:19.749Z,1.98
2023-03-28T23:45:48.052Z,1.96
2023-03-28T23:48:16.602Z,2.02
2023-03-28T23:50:44.982Z,2.05
2023-03-28T23:53:13.667Z,2.01
2023-03-28T23:55:42.157Z,1.98
2023-03-28T23:58:11.852Z,1.92
